Briefing drone pour Le puy-en-velay (LFHP)

Rechercher une autre localisation

Conditions de vol :


Nous sommes le : Mardi 29 septembre 2020
Il est 13:15 UTC (15:15 LT)

Lever de soleil : 05:13 UTC (07:13 LT)
Coucher de soleil : 17:55 UTC (19:55 LT)


Warning: min(): Array must contain at least one element in /homepages/6/d509196549/htdocs/briefdrone/includes/function/metar/metar.php on line 1265

Météo

L'essentiel des conditions de vol

VIGILANCE MÉTÉO FRANCE - Haute-Loire (43)
Pas de vigilances particulieres
METAR de LFHP
LFHP 291300Z AUTO VRB03KT 9999 NCD 14/07 Q1020

Date d'émission: 29/09/2020
Heure d'émission: 13:00 UTC
Vent: Variable 3 KT (6 km/h)
Visibilité horizontale: > 10 km
Température: 14 °C
Point de rosée: 7 °C
Humidité: 63%
Pression (QNH): 1020 hPa
Prévision 24h pour Le puy-en-velay
Vent : 161° pour 1 KT (3 km/h)
Temperature Maxi: 17 °C
Temperature Min: 17 °C
Humidité : 41%
Condition : Ciel dégagé



Warning: count(): Parameter must be an array or an object that implements Countable in /homepages/6/d509196549/htdocs/droneoxygene/briefing.php on line 743
WEBCAM POUR LE PUY-EN-VELAY

Réglementation

Voler en sécurité

CARTES AERONAUTIQUE 1/500.000
CARTES VAC (LFHP)
SUP AIP




Chargement des AIP...
NOTAM (LE PUY-EN-VELAY + Terrain à proximité / FIR )




Chargement des NOTAMS...
CONTACT PREFECTURE 43


Avertissement : Les données mises à disposition sont indicatives. Oxygène Drone ne pourra être tenu responsable de dégâts causés aux biens et aux personnes.